createdAt,value
2023-02-22T00:00:09.537Z,5.93
2023-02-22T00:05:16.723Z,5.73
2023-02-22T00:10:21.043Z,6.20
2023-02-22T00:15:27.320Z,5.80
2023-02-22T00:20:31.753Z,5.97
2023-02-22T00:25:35.584Z,5.70
2023-02-22T00:30:38.468Z,5.60
2023-02-22T00:35:45.900Z,6.00
2023-02-22T00:40:48.809Z,5.70
2023-02-22T00:45:52.011Z,5.70
2023-02-22T00:50:56.371Z,5.40
2023-02-22T00:55:59.325Z,5.90
2023-02-22T01:01:03.580Z,5.83
2023-02-22T01:06:08.085Z,6.20
2023-02-22T01:11:11.339Z,7.00
2023-02-22T01:16:15.068Z,6.03
2023-02-22T01:21:19.535Z,7.53
2023-02-22T01:26:22.429Z,6.80
2023-02-22T01:31:25.349Z,6.60
2023-02-22T01:36:29.594Z,6.67
2023-02-22T01:41:32.880Z,6.90
2023-02-22T01:46:35.840Z,6.43
2023-02-22T01:51:44.069Z,6.20
2023-02-22T01:56:51.127Z,6.07
2023-02-22T02:01:55.296Z,5.73
2023-02-22T02:07:05.988Z,6.23
2023-02-22T02:12:11.136Z,6.47
2023-02-22T02:17:17.628Z,5.60
2023-02-22T02:22:38.377Z,5.90
2023-02-22T02:28:02.680Z,5.90
2023-02-22T02:33:11.745Z,6.70
2023-02-22T02:38:26.528Z,6.93
2023-02-22T02:43:33.401Z,6.53
2023-02-22T02:48:43.142Z,6.33
2023-02-22T02:53:49.133Z,6.90
2023-02-22T02:58:54.387Z,6.47
2023-02-22T03:04:28.629Z,5.60
2023-02-22T03:09:41.964Z,5.90
2023-02-22T03:15:03.463Z,7.27
2023-02-22T03:20:13.709Z,6.40
2023-02-22T03:25:23.802Z,7.03
2023-02-22T03:30:37.215Z,6.20
2023-02-22T03:35:48.195Z,6.50
2023-02-22T03:40:55.430Z,7.57
2023-02-22T03:46:01.077Z,8.27
2023-02-22T03:51:06.628Z,7.47
2023-02-22T03:56:14.660Z,7.80
2023-02-22T04:01:19.893Z,7.93
2023-02-22T04:06:24.529Z,9.80
2023-02-22T04:11:28.902Z,9.50
2023-02-22T04:16:32.046Z,9.37
2023-02-22T04:21:37.464Z,8.03
2023-02-22T04:26:41.378Z,8.43
2023-02-22T04:31:44.401Z,7.57
2023-02-22T04:36:49.426Z,7.33
2023-02-22T04:41:52.606Z,8.40
2023-02-22T04:46:56.661Z,8.67
2023-02-22T04:52:01.163Z,8.03
2023-02-22T04:57:10.727Z,8.87
2023-02-22T05:02:13.759Z,8.70
2023-02-22T05:07:18.178Z,9.33
2023-02-22T05:12:21.499Z,9.73
2023-02-22T05:17:24.638Z,9.70
2023-02-22T05:22:29.179Z,9.90
2023-02-22T05:27:32.078Z,10.23
2023-02-22T05:32:35.258Z,9.50
2023-02-22T05:37:39.506Z,10.40
2023-02-22T05:42:42.537Z,10.20
2023-02-22T05:47:45.789Z,8.60
2023-02-22T05:52:50.511Z,10.13
2023-02-22T05:57:53.790Z,9.03
2023-02-22T06:02:57.761Z,9.50
2023-02-22T06:08:04.793Z,10.97
2023-02-22T06:13:08.529Z,12.10
2023-02-22T06:18:11.568Z,11.60
2023-02-22T06:23:15.859Z,10.10
2023-02-22T06:28:18.818Z,10.60
2023-02-22T06:33:21.788Z,9.23
2023-02-22T06:38:28.380Z,10.23
2023-02-22T06:43:31.338Z,12.00
2023-02-22T06:48:34.242Z,12.37
2023-02-22T06:53:38.568Z,11.90
2023-02-22T06:58:41.467Z,11.53
2023-02-22T07:03:44.379Z,11.67
2023-02-22T07:08:49.876Z,12.30
2023-02-22T07:13:52.724Z,10.20
2023-02-22T07:18:55.657Z,11.00
2023-02-22T07:24:00.124Z,11.37
2023-02-22T07:29:03.074Z,12.13
2023-02-22T07:34:06.045Z,10.27
2023-02-22T07:39:11.215Z,10.63
2023-02-22T07:44:14.173Z,10.20
2023-02-22T07:49:17.441Z,9.93
2023-02-22T07:54:21.924Z,10.03
2023-02-22T07:59:24.852Z,10.73
2023-02-22T08:04:28.166Z,10.43
2023-02-22T08:09:32.489Z,10.70
2023-02-22T08:14:35.457Z,10.50
2023-02-22T08:19:39.276Z,9.70
2023-02-22T08:24:43.601Z,10.80
2023-02-22T08:29:49.157Z,9.90
2023-02-22T08:34:53.046Z,11.00
2023-02-22T08:39:57.493Z,10.90
2023-02-22T08:45:00.452Z,10.93
2023-02-22T08:50:04.119Z,11.30
2023-02-22T08:55:09.008Z,11.77
2023-02-22T09:00:13.360Z,11.80
2023-02-22T09:05:17.221Z,11.43
2023-02-22T09:10:24.764Z,10.97
2023-02-22T09:15:28.949Z,10.97
2023-02-22T09:20:31.872Z,11.67
2023-02-22T09:25:36.220Z,11.60
2023-02-22T09:30:39.544Z,11.80
2023-02-22T09:35:46.429Z,11.00
2023-02-22T09:40:55.155Z,9.10
2023-02-22T09:46:30.665Z,8.90
2023-02-22T09:51:41.234Z,12.00
2023-02-22T09:56:47.553Z,11.07
2023-02-22T10:01:56.599Z,9.97
2023-02-22T10:07:07.009Z,8.03
2023-02-22T10:12:15.935Z,9.93
2023-02-22T10:17:30.840Z,6.60
2023-02-22T10:22:44.518Z,7.73
2023-02-22T10:27:56.502Z,9.10
2023-02-22T10:33:07.498Z,7.30
2023-02-22T10:38:18.419Z,6.47
2023-02-22T10:43:23.444Z,6.30
2023-02-22T10:48:27.840Z,7.97
2023-02-22T10:53:32.702Z,6.40
2023-02-22T10:58:50.244Z,8.17
2023-02-22T11:04:08.835Z,7.17
2023-02-22T11:09:15.031Z,7.20
2023-02-22T11:14:29.457Z,7.10
2023-02-22T11:19:34.105Z,7.30
2023-02-22T11:24:49.339Z,6.97
2023-02-22T11:29:54.166Z,7.47
2023-02-22T11:35:21.837Z,7.07
2023-02-22T11:40:24.945Z,6.60
2023-02-22T11:45:29.199Z,6.50
2023-02-22T11:50:34.927Z,6.50
2023-02-22T11:55:45.448Z,7.03
2023-02-22T12:00:54.923Z,5.87
2023-02-22T12:06:19.460Z,6.83
2023-02-22T12:11:28.638Z,7.60
2023-02-22T12:16:44.857Z,6.03
2023-02-22T12:21:53.954Z,6.63
2023-02-22T12:27:04.078Z,6.20
2023-02-22T12:32:17.228Z,7.03
2023-02-22T12:37:27.035Z,6.87
2023-02-22T12:42:43.433Z,6.33
2023-02-22T12:47:56.705Z,6.40
2023-02-22T12:53:05.403Z,6.73
2023-02-22T12:58:20.391Z,6.70
2023-02-22T13:03:34.290Z,5.80
2023-02-22T13:08:43.113Z,6.10
2023-02-22T13:13:54.576Z,6.50
2023-02-22T13:19:04.541Z,6.90
2023-02-22T13:24:19.624Z,6.60
2023-02-22T13:29:28.418Z,6.33
2023-02-22T13:34:56.775Z,5.83
2023-02-22T13:40:21.073Z,6.50
2023-02-22T13:45:46.393Z,6.17
2023-02-22T13:51:06.609Z,6.50
2023-02-22T13:56:09.586Z,6.10
2023-02-22T14:01:45.658Z,4.90
2023-02-22T14:06:48.980Z,5.90
2023-02-22T14:11:57.939Z,5.43
2023-02-22T14:17:25.248Z,5.20
2023-02-22T14:22:30.167Z,5.00
2023-02-22T14:27:41.402Z,5.90
2023-02-22T14:32:48.930Z,5.97
2023-02-22T14:37:57.646Z,5.50
2023-02-22T14:43:06.280Z,5.73
2023-02-22T14:48:20.358Z,4.80
2023-02-22T14:53:33.032Z,6.10
2023-02-22T14:58:41.794Z,5.90
2023-02-22T15:03:51.355Z,5.90
2023-02-22T15:09:09.869Z,5.47
2023-02-22T15:14:25.725Z,6.00
2023-02-22T15:19:34.762Z,5.50
2023-02-22T15:24:38.875Z,5.63
2023-02-22T15:29:44.574Z,5.17
2023-02-22T15:34:48.807Z,6.00
2023-02-22T15:39:59.475Z,5.53
2023-02-22T15:45:02.581Z,4.93
2023-02-22T15:50:21.230Z,6.00
2023-02-22T15:55:28.174Z,7.40
2023-02-22T16:00:37.020Z,7.60
2023-02-22T16:05:44.970Z,7.93
2023-02-22T16:10:54.523Z,8.87
2023-02-22T16:16:03.455Z,9.13
2023-02-22T16:21:12.903Z,10.40
2023-02-22T16:26:28.505Z,11.03
2023-02-22T16:31:34.719Z,13.43
2023-02-22T16:36:42.550Z,11.60
2023-02-22T16:41:45.647Z,9.73
2023-02-22T16:46:48.605Z,10.97
2023-02-22T16:51:55.341Z,9.50
2023-02-22T16:57:00.333Z,18.83
2023-02-22T17:02:07.527Z,27.77
2023-02-22T17:07:11.886Z,31.53
2023-02-22T17:12:15.024Z,19.20
2023-02-22T17:17:18.447Z,16.50
2023-02-22T17:22:23.800Z,11.70
2023-02-22T17:27:26.684Z,14.03
2023-02-22T17:32:29.667Z,13.23
2023-02-22T17:37:33.963Z,13.93
2023-02-22T17:42:36.880Z,17.83
2023-02-22T17:47:39.775Z,14.53
2023-02-22T17:52:44.463Z,14.97
2023-02-22T17:57:48.908Z,13.47
2023-02-22T18:02:52.674Z,15.40
2023-02-22T18:07:57.172Z,17.43
2023-02-22T18:13:01.969Z,16.73
2023-02-22T18:18:06.099Z,15.37
2023-02-22T18:23:13.552Z,15.27
2023-02-22T18:28:17.591Z,14.23
2023-02-22T18:33:21.391Z,14.70
2023-02-22T18:38:25.965Z,15.03
2023-02-22T18:43:29.119Z,15.90
2023-02-22T18:48:32.825Z,14.63
2023-02-22T18:53:37.986Z,16.10
2023-02-22T18:58:43.229Z,16.73
2023-02-22T19:03:47.397Z,16.90
2023-02-22T19:08:52.373Z,15.67
2023-02-22T19:13:58.575Z,15.37
2023-02-22T19:19:01.511Z,15.17
2023-02-22T19:24:06.568Z,13.63
2023-02-22T19:29:09.511Z,13.47
2023-02-22T19:34:14.618Z,13.20
2023-02-22T19:39:20.956Z,12.10
2023-02-22T19:44:24.665Z,12.60
2023-02-22T19:49:29.118Z,11.77
2023-02-22T19:54:34.099Z,11.90
2023-02-22T19:59:37.803Z,14.47
2023-02-22T20:04:40.830Z,12.13
2023-02-22T20:09:45.186Z,10.90
2023-02-22T20:14:48.200Z,15.10
2023-02-22T20:19:51.174Z,13.10
2023-02-22T20:24:55.458Z,12.00
2023-02-22T20:29:58.400Z,14.33
2023-02-22T20:35:01.472Z,12.73
2023-02-22T20:40:06.615Z,13.40
2023-02-22T20:45:11.973Z,13.10
2023-02-22T20:50:15.480Z,12.80
2023-02-22T20:55:20.787Z,13.87
2023-02-22T21:00:23.773Z,13.43
2023-02-22T21:05:26.859Z,13.60
2023-02-22T21:10:31.145Z,13.80
2023-02-22T21:15:34.944Z,13.17
2023-02-22T21:20:40.785Z,13.37
2023-02-22T21:25:53.074Z,14.57
2023-02-22T21:30:56.186Z,13.43
2023-02-22T21:35:59.417Z,12.37
2023-02-22T21:41:03.698Z,13.00
2023-02-22T21:46:08.062Z,14.50
2023-02-22T21:51:13.891Z,12.50
2023-02-22T21:56:21.059Z,13.50
2023-02-22T22:01:27.201Z,12.20
2023-02-22T22:06:32.763Z,13.80
2023-02-22T22:11:37.346Z,14.00
2023-02-22T22:16:40.658Z,12.37
2023-02-22T22:21:43.735Z,13.80
2023-02-22T22:26:51.106Z,13.10
2023-02-22T22:31:54.530Z,13.00
2023-02-22T22:36:58.668Z,13.90
2023-02-22T22:42:02.943Z,12.47
2023-02-22T22:47:06.243Z,12.30
2023-02-22T22:52:10.413Z,12.83
2023-02-22T22:57:14.654Z,13.50
2023-02-22T23:02:20.359Z,12.53
2023-02-22T23:07:23.259Z,14.50
2023-02-22T23:12:31.541Z,13.17
2023-02-22T23:17:41.260Z,12.50
2023-02-22T23:22:47.230Z,14.40
2023-02-22T23:27:52.264Z,14.80
2023-02-22T23:32:57.445Z,15.40
2023-02-22T23:38:00.357Z,18.43
2023-02-22T23:43:05.676Z,18.20
2023-02-22T23:48:08.587Z,18.00
2023-02-22T23:53:15.190Z,17.07
2023-02-22T23:58:22.803Z,15.93
